Time;durP1;ratioP1;P1;durP2;ratioP2;P2;SDS_P1;SDS_P2;PMS_P1;PMS_P2;Temp;Humidity;BMP_temperature;BMP_pressure;BME280_temperature;BME280_humidity;BME280_pressure;Samples;Min_cycle;Max_cycle;Signal;HPM_P1;HPM_P2
2021/04/08 00:01:18;;;;;;;;;;;;;;;4.90;65.55;101420.44;5096487;28;19912;-77
2021/04/08 00:03:43;;;;;;;;;;;;;;;4.84;65.22;101416.69;5076895;28;19916;-77
2021/04/08 00:06:09;;;;;;;;;;;;;;;4.78;65.04;101427.81;5060146;28;19966;-76
2021/04/08 00:08:34;;;;;;;;;;;;;;;4.69;65.42;101419.88;5067114;28;19931;-77
2021/04/08 00:10:59;;;;;;;;;;;;;;;4.63;65.65;101417.25;5077939;28;19920;-76
2021/04/08 00:13:24;;;;;;;;;;;;;;;4.64;65.58;101414.22;5059869;28;20303;-77
2021/04/08 00:15:50;;;;;;;;;;;;;;;4.54;65.82;101416.72;5079546;28;19922;-77
2021/04/08 00:18:16;;;;;;;;;;;;;;;4.50;65.78;101425.66;5087498;28;20435;-77
2021/04/08 00:20:42;;;;;;;;;;;;;;;4.46;66.28;101423.38;5086754;28;19916;-76
2021/04/08 00:23:07;;;;;;;;;;;;;;;4.41;66.21;101425.13;5077728;28;19916;-77
2021/04/08 00:25:32;;;;;;;;;;;;;;;4.36;66.09;101419.47;5094678;28;19942;-77
2021/04/08 00:27:58;;;;;;;;;;;;;;;4.33;66.18;101428.19;5076272;28;19923;-77
2021/04/08 00:30:23;;;;;;;;;;;;;;;4.23;65.97;101423.22;5079312;28;20326;-77
2021/04/08 00:32:48;;;;;;;;;;;;;;;4.18;65.91;101429.44;5078559;28;19916;-77
2021/04/08 00:35:14;;;;;;;;;;;;;;;4.14;66.02;101416.34;5076993;28;19916;-77
2021/04/08 00:37:39;;;;;;;;;;;;;;;4.07;66.28;101418.34;5050665;28;20425;-76
2021/04/08 00:40:11;;;;;;;;;;;;;;;4.00;66.15;101419.25;5076998;28;19948;-76
2021/04/08 00:42:38;;;;;;;;;;;;;;;3.99;66.29;101419.50;5075870;28;19912;-76
2021/04/08 00:45:04;;;;;;;;;;;;;;;3.91;66.39;101417.03;5078254;28;19938;-76
2021/04/08 00:47:29;;;;;;;;;;;;;;;3.88;66.77;101425.75;5060329;28;19916;-77
2021/04/08 00:49:54;;;;;;;;;;;;;;;3.86;66.49;101422.38;5073523;28;19939;-77
2021/04/08 00:52:20;;;;;;;;;;;;;;;3.82;66.69;101422.00;5058491;28;19916;-76
2021/04/08 00:54:45;;;;;;;;;;;;;;;3.79;66.58;101430.69;5060440;28;19923;-78
2021/04/08 00:57:11;;;;;;;;;;;;;;;3.73;67.05;101417.84;5075786;28;20014;-77
2021/04/08 00:59:36;;;;;;;;;;;;;;;3.68;66.67;101420.47;5075662;28;19917;-76
2021/04/08 01:02:01;;;;;;;;;;;;;;;3.64;67.09;101422.78;5077364;28;19972;-76
2021/04/08 01:04:27;;;;;;;;;;;;;;;3.56;66.55;101417.59;5074356;28;19972;-76
2021/04/08 01:06:52;;;;;;;;;;;;;;;3.55;66.90;101419.50;5078722;28;19917;-77
2021/04/08 01:09:17;;;;;;;;;;;;;;;3.53;66.84;101418.03;5075597;28;20402;-76
2021/04/08 01:11:43;;;;;;;;;;;;;;;3.50;66.69;101410.25;5073904;28;19954;-76
2021/04/08 01:14:08;;;;;;;;;;;;;;;3.47;66.75;101416.19;5092844;28;19917;-76
2021/04/08 01:16:43;;;;;;;;;;;;;;;3.44;66.96;101411.16;5073596;28;19938;-77
2021/04/08 01:19:14;;;;;;;;;;;;;;;3.41;67.01;101417.94;5075882;28;20323;-76
2021/04/08 01:21:40;;;;;;;;;;;;;;;3.37;67.16;101411.19;5077370;28;19916;-76
2021/04/08 01:24:08;;;;;;;;;;;;;;;3.36;67.42;101409.53;5093105;28;19933;-76
2021/04/08 01:26:49;;;;;;;;;;;;;;;3.30;67.17;101408.53;5092961;28;19916;-76
2021/04/08 01:29:17;;;;;;;;;;;;;;;3.27;66.89;101411.72;5062658;28;19960;-76
2021/04/08 01:31:43;;;;;;;;;;;;;;;3.26;66.83;101410.03;5076322;28;19980;-76
2021/04/08 01:34:09;;;;;;;;;;;;;;;3.21;67.27;101411.78;5058262;28;20353;-76
2021/04/08 01:36:34;;;;;;;;;;;;;;;3.20;67.28;101399.09;5077893;28;19912;-76
2021/04/08 01:39:01;;;;;;;;;;;;;;;3.14;67.48;101406.31;5071214;28;20372;-77
2021/04/08 01:41:27;;;;;;;;;;;;;;;3.11;67.47;101404.88;5077448;28;19916;-76
2021/04/08 01:43:54;;;;;;;;;;;;;;;3.05;67.06;101399.44;5077366;28;19912;-76
2021/04/08 01:46:20;;;;;;;;;;;;;;;3.02;67.50;101402.63;5076820;28;20025;-76
2021/04/08 01:48:45;;;;;;;;;;;;;;;2.98;67.58;101398.63;5058743;28;19928;-76
2021/04/08 01:51:11;;;;;;;;;;;;;;;2.94;67.40;101394.66;5078333;28;19918;-76
2021/04/08 01:53:40;;;;;;;;;;;;;;;2.90;67.31;101400.59;5074544;28;20379;-76
2021/04/08 01:56:05;;;;;;;;;;;;;;;2.87;67.56;101398.31;5076118;28;19980;-76
2021/04/08 01:58:31;;;;;;;;;;;;;;;2.83;67.77;101397.03;5062732;28;20407;-76
2021/04/08 02:00:56;;;;;;;;;;;;;;;2.78;67.51;101396.03;5079585;28;19923;-77
2021/04/08 02:03:21;;;;;;;;;;;;;;;2.74;67.73;101395.63;5062668;28;19923;-77
2021/04/08 02:05:47;;;;;;;;;;;;;;;2.73;67.88;101396.72;5048900;28;19916;-76
2021/04/08 02:08:12;;;;;;;;;;;;;;;2.72;67.87;101394.16;5073068;28;19935;-76
2021/04/08 02:10:38;;;;;;;;;;;;;;;2.69;67.54;101398.19;5099662;28;20375;-76
2021/04/08 02:13:03;;;;;;;;;;;;;;;2.67;67.49;101403.03;5077922;28;19950;-76
2021/04/08 02:15:28;;;;;;;;;;;;;;;2.63;67.90;101401.81;5079820;28;20421;-76
2021/04/08 02:17:54;;;;;;;;;;;;;;;2.61;67.92;101403.94;5096996;28;19960;-76
2021/04/08 02:20:21;;;;;;;;;;;;;;;2.58;67.96;101401.63;5065411;28;19912;-76
2021/04/08 02:22:51;;;;;;;;;;;;;;;2.54;68.00;101394.91;5078471;28;19912;-76
2021/04/08 02:25:16;;;;;;;;;;;;;;;2.53;67.99;101395.97;5062065;28;20299;-76
2021/04/08 02:27:42;;;;;;;;;;;;;;;2.52;68.06;101391.53;5058015;28;19920;-77
2021/04/08 02:30:09;;;;;;;;;;;;;;;2.51;67.82;101395.31;5061666;28;19912;-77
2021/04/08 02:32:35;;;;;;;;;;;;;;;2.49;67.76;101392.81;5080885;28;19916;-76
2021/04/08 02:35:01;;;;;;;;;;;;;;;2.44;67.91;101382.50;5078623;28;19979;-76
2021/04/08 02:37:26;;;;;;;;;;;;;;;2.43;67.97;101391.78;5076149;28;20426;-76
2021/04/08 02:39:51;;;;;;;;;;;;;;;2.40;68.03;101381.28;5078296;28;19923;-76
2021/04/08 02:42:17;;;;;;;;;;;;;;;2.39;67.95;101382.31;5080276;28;20414;-76
2021/04/08 02:44:42;;;;;;;;;;;;;;;2.36;68.17;101381.91;5074373;28;19950;-77
2021/04/08 02:47:07;;;;;;;;;;;;;;;2.37;68.31;101384.47;5094368;28;20473;-76
2021/04/08 02:49:32;;;;;;;;;;;;;;;2.37;67.91;101384.47;5097971;28;19916;-76
2021/04/08 02:51:58;;;;;;;;;;;;;;;2.33;67.96;101383.19;5079125;28;19923;-77
2021/04/08 02:54:32;;;;;;;;;;;;;;;2.33;68.21;101380.44;5056605;28;19916;-76
2021/04/08 02:56:58;;;;;;;;;;;;;;;2.31;68.16;101379.81;5080304;28;20045;-77
2021/04/08 02:59:41;;;;;;;;;;;;;;;2.28;68.38;101374.78;5056498;28;19916;-77
2021/04/08 03:02:20;;;;;;;;;;;;;;;2.30;68.43;101377.31;5078962;28;19927;-76
2021/04/08 03:04:46;;;;;;;;;;;;;;;2.29;68.21;101371.00;5098611;28;20391;-75
2021/04/08 03:07:11;;;;;;;;;;;;;;;2.27;68.05;101370.38;5098976;28;19916;-77
2021/04/08 03:09:38;;;;;;;;;;;;;;;2.26;67.94;101370.56;5077583;28;19920;-76
2021/04/08 03:12:04;;;;;;;;;;;;;;;2.25;68.03;101380.69;5080180;28;19930;-76
2021/04/08 03:14:31;;;;;;;;;;;;;;;2.26;68.09;101376.06;5079751;28;20356;-76
2021/04/08 03:16:56;;;;;;;;;;;;;;;2.24;67.96;101370.81;5074732;28;20375;-76
2021/04/08 03:19:22;;;;;;;;;;;;;;;2.24;67.88;101368.06;5077557;28;19916;-76
2021/04/08 03:21:48;;;;;;;;;;;;;;;2.22;67.97;101368.25;5079493;28;19916;-76
2021/04/08 03:24:13;;;;;;;;;;;;;;;2.21;68.22;101363.84;5077991;28;20299;-76
2021/04/08 03:26:38;;;;;;;;;;;;;;;2.23;68.14;101366.41;5078941;28;19916;-76
2021/04/08 03:29:04;;;;;;;;;;;;;;;2.22;68.35;101364.69;5080275;28;20410;-77
2021/04/08 03:31:29;;;;;;;;;;;;;;;2.24;68.23;101363.41;5077895;28;19962;-76
2021/04/08 03:33:54;;;;;;;;;;;;;;;2.23;68.44;101361.75;5063172;28;19985;-76
2021/04/08 03:36:20;;;;;;;;;;;;;;;2.23;68.61;101353.53;5078131;28;19962;-76
2021/04/08 03:38:45;;;;;;;;;;;;;;;2.23;68.70;101355.44;5076421;28;20002;-76
2021/04/08 03:41:10;;;;;;;;;;;;;;;2.26;68.38;101356.88;5080082;28;20431;-77
2021/04/08 03:43:36;;;;;;;;;;;;;;;2.24;68.28;101351.63;5043276;28;19948;-77
2021/04/08 03:46:02;;;;;;;;;;;;;;;2.23;68.41;101350.78;5073211;28;19959;-76
2021/04/08 03:48:27;;;;;;;;;;;;;;;2.26;68.50;101351.38;5078347;28;20422;-76
2021/04/08 03:50:52;;;;;;;;;;;;;;;2.23;68.74;101344.47;5062291;28;19955;-77
2021/04/08 03:53:18;;;;;;;;;;;;;;;2.24;68.81;101341.50;5058300;28;20293;-76
2021/04/08 03:55:43;;;;;;;;;;;;;;;2.25;69.04;101347.81;5078391;28;20272;-76
2021/04/08 03:58:08;;;;;;;;;;;;;;;2.20;69.08;101347.63;5061906;28;19916;-76
2021/04/08 04:00:34;;;;;;;;;;;;;;;2.22;69.49;101340.03;5074950;28;20002;-76
2021/04/08 04:03:00;;;;;;;;;;;;;;;2.17;69.55;101340.69;5062603;28;19916;-76
2021/04/08 04:05:25;;;;;;;;;;;;;;;2.16;69.58;101341.75;5072046;28;19937;-76
2021/04/08 04:07:51;;;;;;;;;;;;;;;2.16;69.48;101340.91;5058099;28;19920;-76
2021/04/08 04:10:21;;;;;;;;;;;;;;;2.14;69.43;101338.38;5077177;28;19917;-76
2021/04/08 04:12:47;;;;;;;;;;;;;;;2.13;69.58;101339.44;5060567;28;19924;-76
2021/04/08 04:15:13;;;;;;;;;;;;;;;2.07;69.67;101337.56;5075235;28;20349;-76
2021/04/08 04:17:38;;;;;;;;;;;;;;;2.04;69.61;101342.66;5096648;28;19955;-76
2021/04/08 04:20:04;;;;;;;;;;;;;;;2.05;69.54;101336.94;5077631;28;20179;-77
2021/04/08 04:22:29;;;;;;;;;;;;;;;1.97;69.30;101335.28;5075842;28;19916;-77
2021/04/08 04:24:55;;;;;;;;;;;;;;;2.03;69.31;101327.25;5078462;28;20502;-76
2021/04/08 04:27:20;;;;;;;;;;;;;;;1.95;69.45;101328.34;5071978;28;20003;-76
2021/04/08 04:29:45;;;;;;;;;;;;;;;1.89;69.50;101324.56;5074571;28;19956;-76
2021/04/08 04:32:11;;;;;;;;;;;;;;;1.89;69.39;101332.78;5076279;28;19916;-76
2021/04/08 04:34:36;;;;;;;;;;;;;;;1.87;69.43;101334.91;5078118;28;19919;-77
2021/04/08 04:37:02;;;;;;;;;;;;;;;1.84;69.39;101329.00;5057028;28;19920;-77
2021/04/08 04:39:27;;;;;;;;;;;;;;;1.82;69.28;101342.09;5061784;28;19916;-76
2021/04/08 04:41:52;;;;;;;;;;;;;;;1.77;69.24;101335.34;5096199;28;19919;-76
2021/04/08 04:44:18;;;;;;;;;;;;;;;1.77;69.34;101334.53;5074728;28;20303;-76
2021/04/08 04:46:43;;;;;;;;;;;;;;;1.75;69.50;101340.19;5096162;28;19920;-76
2021/04/08 04:49:08;;;;;;;;;;;;;;;1.75;69.77;101334.72;5077790;28;19927;-76
2021/04/08 04:51:34;;;;;;;;;;;;;;;1.69;69.74;101332.84;5057297;28;19916;-76
2021/04/08 04:53:59;;;;;;;;;;;;;;;1.66;69.56;101335.19;5078037;28;19977;-76
2021/04/08 04:56:24;;;;;;;;;;;;;;;1.61;69.81;101327.59;5073351;28;19920;-76
2021/04/08 04:58:50;;;;;;;;;;;;;;;1.61;69.75;101343.19;5075030;28;19912;-76
2021/04/08 05:01:15;;;;;;;;;;;;;;;1.56;69.93;101339.22;5076180;28;19954;-76
2021/04/08 05:03:40;;;;;;;;;;;;;;;1.53;69.77;101334.19;5078340;28;19912;-76
2021/04/08 05:06:05;;;;;;;;;;;;;;;1.50;69.78;101334.59;5077623;28;19912;-76
2021/04/08 05:08:31;;;;;;;;;;;;;;;1.44;69.66;101338.19;5076348;28;19920;-76
2021/04/08 05:10:56;;;;;;;;;;;;;;;1.46;69.94;101336.06;5078524;28;19927;-76
2021/04/08 05:13:21;;;;;;;;;;;;;;;1.42;69.93;101336.72;5075436;28;19912;-76
2021/04/08 05:15:47;;;;;;;;;;;;;;;1.37;69.86;101333.78;5076481;28;19916;-76
2021/04/08 05:18:12;;;;;;;;;;;;;;;1.33;69.92;101333.34;5056824;28;20289;-77
2021/04/08 05:20:37;;;;;;;;;;;;;;;1.32;69.97;101335.25;5056270;28;19923;-76
2021/04/08 05:23:03;;;;;;;;;;;;;;;1.26;70.17;101344.31;5077489;28;20395;-76
2021/04/08 05:25:28;;;;;;;;;;;;;;;1.21;69.94;101338.63;5059283;28;19953;-76
2021/04/08 05:27:53;;;;;;;;;;;;;;;1.17;69.97;101331.94;5073609;28;19924;-76
2021/04/08 05:30:19;;;;;;;;;;;;;;;1.13;70.15;101338.84;5078193;28;20371;-76
2021/04/08 05:32:44;;;;;;;;;;;;;;;1.12;69.89;101342.66;5077346;28;19920;-76
2021/04/08 05:35:10;;;;;;;;;;;;;;;1.08;70.05;101344.13;5076901;28;19916;-76
2021/04/08 05:37:35;;;;;;;;;;;;;;;1.10;69.71;101337.38;5096073;28;19927;-76
2021/04/08 05:40:00;;;;;;;;;;;;;;;1.13;69.80;101343.50;5075171;28;19984;-76
2021/04/08 05:42:26;;;;;;;;;;;;;;;1.05;69.73;101345.38;5076037;28;19920;-77
2021/04/08 05:44:51;;;;;;;;;;;;;;;1.03;69.99;101339.28;5061239;28;19916;-76
2021/04/08 05:47:16;;;;;;;;;;;;;;;1.01;70.21;101341.41;5075126;28;19920;-76
2021/04/08 05:49:42;;;;;;;;;;;;;;;1.00;70.23;101339.69;5057930;28;19920;-76
2021/04/08 05:52:07;;;;;;;;;;;;;;;0.99;70.39;101339.91;5074759;28;19917;-76
2021/04/08 05:54:32;;;;;;;;;;;;;;;1.02;70.43;101345.81;5076395;28;19920;-76
2021/04/08 05:56:58;;;;;;;;;;;;;;;1.04;70.59;101346.44;5059101;28;19923;-76
2021/04/08 05:59:24;;;;;;;;;;;;;;;1.18;71.96;101347.28;5092930;28;19917;-76
2021/04/08 06:01:49;;;;;;;;;;;;;;;1.31;73.11;101346.44;5095752;28;20375;-76
2021/04/08 06:04:14;;;;;;;;;;;;;;;1.44;73.74;101340.09;5074502;28;20011;-76
2021/04/08 06:06:40;;;;;;;;;;;;;;;1.54;74.15;101335.84;5095975;28;19924;-76
2021/04/08 06:09:05;;;;;;;;;;;;;;;1.68;74.43;101335.81;5071448;28;19921;-76
2021/04/08 06:11:30;;;;;;;;;;;;;;;1.77;74.56;101342.75;5058789;28;19999;-76
2021/04/08 06:13:56;;;;;;;;;;;;;;;1.91;74.77;101338.91;5074629;28;20438;-77
2021/04/08 06:16:21;;;;;;;;;;;;;;;2.03;74.56;101338.22;5074112;28;19961;-77
2021/04/08 06:18:46;;;;;;;;;;;;;;;2.15;74.43;101337.31;5072995;28;19919;-75
2021/04/08 06:21:12;;;;;;;;;;;;;;;2.30;74.55;101344.41;5076933;28;19916;-76
2021/04/08 06:23:37;;;;;;;;;;;;;;;2.40;74.57;101339.31;5057962;28;19919;-76
2021/04/08 06:26:02;;;;;;;;;;;;;;;2.49;74.22;101337.16;5073273;28;20319;-76
2021/04/08 06:28:28;;;;;;;;;;;;;;;2.58;73.74;101335.81;5075300;28;20368;-76
2021/04/08 06:30:53;;;;;;;;;;;;;;;2.68;73.11;101341.66;5077108;28;19919;-76
2021/04/08 06:33:18;;;;;;;;;;;;;;;2.80;72.82;101337.13;5073037;28;19916;-76
2021/04/08 06:35:44;;;;;;;;;;;;;;;2.92;73.29;101337.25;5095794;28;19916;-76
2021/04/08 06:38:09;;;;;;;;;;;;;;;3.03;74.56;101333.78;5091504;28;19958;-77
2021/04/08 06:40:34;;;;;;;;;;;;;;;3.16;76.94;101335.59;5057717;28;20431;-76
2021/04/08 06:43:00;;;;;;;;;;;;;;;3.28;76.39;101330.19;5060747;28;19956;-76
2021/04/08 06:45:26;;;;;;;;;;;;;;;3.40;76.63;101333.03;5097144;28;19920;-76
2021/04/08 06:48:10;;;;;;;;;;;;;;;3.53;75.80;101332.91;5076802;28;19921;-76
2021/04/08 06:50:42;;;;;;;;;;;;;;;3.68;75.04;101335.28;5080570;28;19916;-79
2021/04/08 06:53:08;;;;;;;;;;;;;;;3.83;74.27;101337.66;5077657;28;19912;-76
2021/04/08 06:55:33;;;;;;;;;;;;;;;3.96;74.84;101345.75;5074586;28;19916;-76
2021/04/08 06:57:59;;;;;;;;;;;;;;;4.10;75.04;101327.19;5079535;28;20350;-77
2021/04/08 07:00:24;;;;;;;;;;;;;;;4.24;74.04;101335.00;5077831;28;21465;-76
2021/04/08 07:02:50;;;;;;;;;;;;;;;4.38;73.88;101329.34;5078303;28;19917;-76
2021/04/08 07:05:21;;;;;;;;;;;;;;;4.54;73.65;101325.94;5079038;28;20004;-82
2021/04/08 07:07:47;;;;;;;;;;;;;;;4.72;73.60;101335.19;5079604;28;19920;-76
2021/04/08 07:10:12;;;;;;;;;;;;;;;4.89;75.24;101336.19;5096751;28;19962;-76
2021/04/08 07:12:38;;;;;;;;;;;;;;;5.05;73.88;101330.00;5080024;28;19953;-77
2021/04/08 07:15:04;;;;;;;;;;;;;;;5.23;73.31;101330.97;5080723;28;19920;-76
2021/04/08 07:17:29;;;;;;;;;;;;;;;5.40;73.26;101337.44;5078164;28;20586;-76
2021/04/08 07:19:57;;;;;;;;;;;;;;;5.56;73.85;101322.94;5062051;28;19989;-76
2021/04/08 07:22:23;;;;;;;;;;;;;;;5.75;73.42;101325.56;5098247;28;19912;-76
2021/04/08 07:24:48;;;;;;;;;;;;;;;5.91;73.52;101323.97;5094821;28;20352;-76
2021/04/08 07:27:19;;;;;;;;;;;;;;;6.08;73.99;101321.31;5095794;28;19920;-76
2021/04/08 07:29:47;;;;;;;;;;;;;;;6.26;73.83;101330.22;5098462;28;20265;-77
2021/04/08 07:32:13;;;;;;;;;;;;;;;6.43;73.46;101327.53;5078214;28;19916;-77
2021/04/08 07:34:40;;;;;;;;;;;;;;;6.60;73.29;101341.41;5095247;28;20009;-77
2021/04/08 07:37:05;;;;;;;;;;;;;;;6.78;72.91;101325.69;5080683;28;19919;-77
2021/04/08 07:39:37;;;;;;;;;;;;;;;6.94;72.76;101331.25;5069128;28;19917;-77
2021/04/08 07:42:04;;;;;;;;;;;;;;;7.13;72.66;101329.06;5071474;28;19943;-76
2021/04/08 07:44:30;;;;;;;;;;;;;;;7.31;72.45;101327.97;5060222;28;19912;-69
2021/04/08 07:46:55;;;;;;;;;;;;;;;7.51;71.70;101329.38;5077485;28;19924;-69
2021/04/08 07:49:27;;;;;;;;;;;;;;;7.73;72.18;101332.19;5096181;28;19920;-69
2021/04/08 07:51:52;;;;;;;;;;;;;;;7.91;71.72;101328.25;5097224;28;19934;-69
2021/04/08 07:54:18;;;;;;;;;;;;;;;8.09;72.14;101325.19;5096124;28;20424;-69
2021/04/08 07:56:44;;;;;;;;;;;;;;;8.29;71.91;101314.34;5078648;28;19916;-69
2021/04/08 07:59:26;;;;;;;;;;;;;;;8.47;71.32;101320.69;5095311;28;20344;-69
2021/04/08 08:01:59;;;;;;;;;;;;;;;8.66;71.18;101324.78;5072934;28;20006;-69
2021/04/08 08:04:25;;;;;;;;;;;;;;;8.81;70.63;101320.47;5061439;28;19923;-69
2021/04/08 08:06:50;;;;;;;;;;;;;;;9.02;70.36;101318.72;5044257;28;19920;-69
2021/04/08 08:09:42;;;;;;;;;;;;;;;9.18;69.16;101326.06;5060511;28;20269;-69
2021/04/08 08:12:11;;;;;;;;;;;;;;;9.35;69.57;101320.34;5091551;28;19920;-69
2021/04/08 08:14:38;;;;;;;;;;;;;;;9.54;69.06;101316.06;5066542;28;19924;-69
2021/04/08 08:17:05;;;;;;;;;;;;;;;9.61;68.38;101319.44;5059808;28;20335;-69
2021/04/08 08:19:31;;;;;;;;;;;;;;;9.74;67.80;101317.28;5068699;28;19923;-69
2021/04/08 08:21:57;;;;;;;;;;;;;;;9.88;67.52;101318.47;5077276;28;19961;-69
2021/04/08 08:24:22;;;;;;;;;;;;;;;10.01;66.94;101317.97;5097452;28;19912;-69
2021/04/08 08:26:48;;;;;;;;;;;;;;;10.15;66.82;101317.50;5059607;28;19916;-69
2021/04/08 08:29:17;;;;;;;;;;;;;;;10.25;66.29;101309.19;5062014;28;19926;-69
2021/04/08 08:31:43;;;;;;;;;;;;;;;10.35;66.07;101309.25;5079188;28;19934;-69
2021/04/08 08:34:09;;;;;;;;;;;;;;;10.48;65.52;101314.28;5067455;28;19995;-69
2021/04/08 08:36:35;;;;;;;;;;;;;;;10.62;65.11;101309.03;5074763;28;19920;-69
2021/04/08 08:39:02;;;;;;;;;;;;;;;10.77;64.87;101312.94;5043458;28;19969;-69
2021/04/08 08:41:30;;;;;;;;;;;;;;;10.91;64.30;101308.53;5049621;28;20002;-69
2021/04/08 08:43:56;;;;;;;;;;;;;;;11.03;64.37;101311.00;5042266;28;19920;-69
2021/04/08 08:46:22;;;;;;;;;;;;;;;11.15;64.72;101312.41;5037307;28;19967;-69
2021/04/08 08:48:47;;;;;;;;;;;;;;;11.24;65.04;101307.13;5038178;28;19932;-69
2021/04/08 08:51:13;;;;;;;;;;;;;;;11.37;64.04;101311.31;5053282;28;19928;-69
2021/04/08 08:53:38;;;;;;;;;;;;;;;11.55;62.42;101307.09;5022242;28;19917;-69
2021/04/08 08:56:04;;;;;;;;;;;;;;;11.72;61.02;101313.16;5016282;28;19921;-69
2021/04/08 08:58:29;;;;;;;;;;;;;;;11.85;61.08;101307.03;5049128;28;19978;-69
2021/04/08 09:00:56;;;;;;;;;;;;;;;11.99;60.83;101312.84;5038145;28;19921;-69
2021/04/08 09:03:22;;;;;;;;;;;;;;;12.12;61.08;101304.97;5048314;28;19913;-69
2021/04/08 09:05:47;;;;;;;;;;;;;;;12.26;59.55;101306.88;5037669;28;19923;-69
2021/04/08 09:08:13;;;;;;;;;;;;;;;12.46;57.69;101299.53;5054055;28;20288;-69
2021/04/08 09:10:39;;;;;;;;;;;;;;;12.62;56.46;101303.03;5038374;28;19916;-69
2021/04/08 09:13:05;;;;;;;;;;;;;;;12.72;57.22;101297.41;5032034;28;19958;-69
2021/04/08 09:15:30;;;;;;;;;;;;;;;12.79;57.49;101297.06;5020848;28;19960;-70
2021/04/08 09:17:59;;;;;;;;;;;;;;;12.85;57.43;101302.34;5018538;28;19917;-69
2021/04/08 09:20:24;;;;;;;;;;;;;;;12.95;57.39;101295.84;5052381;28;19920;-69
2021/04/08 09:22:50;;;;;;;;;;;;;;;13.05;57.28;101298.56;5038567;28;20610;-70
2021/04/08 09:25:19;;;;;;;;;;;;;;;13.11;54.87;101290.97;5054283;28;19913;-70
2021/04/08 09:28:10;;;;;;;;;;;;;;;13.15;53.69;101286.50;5037286;28;19939;-70
2021/04/08 09:30:43;;;;;;;;;;;;;;;13.19;54.08;101285.59;5054532;28;19986;-70
2021/04/08 09:33:09;;;;;;;;;;;;;;;13.21;54.33;101288.09;5071689;28;19974;-70
2021/04/08 09:35:34;;;;;;;;;;;;;;;13.25;54.49;101282.75;5032900;28;19913;-70
2021/04/08 09:38:00;;;;;;;;;;;;;;;13.29;55.19;101289.44;5043903;28;19917;-70
2021/04/08 09:40:30;;;;;;;;;;;;;;;13.35;54.03;101275.16;5055992;28;19967;-70
2021/04/08 09:42:56;;;;;;;;;;;;;;;13.36;52.69;101270.41;5054091;28;19917;-69
2021/04/08 09:45:22;;;;;;;;;;;;;;;13.41;53.28;101264.78;5059948;28;19935;-70
2021/04/08 09:47:47;;;;;;;;;;;;;;;13.51;52.40;101263.81;5056917;28;20468;-69
2021/04/08 09:50:31;;;;;;;;;;;;;;;13.62;52.35;101262.59;5051323;28;20476;-70
2021/04/08 09:52:56;;;;;;;;;;;;;;;13.80;52.81;101259.03;5075382;28;20026;-69
2021/04/08 09:55:31;;;;;;;;;;;;;;;13.96;52.51;101256.91;5074425;28;19924;-70
2021/04/08 09:58:00;;;;;;;;;;;;;;;14.04;51.64;101253.44;5072792;28;20466;-69
2021/04/08 10:00:25;;;;;;;;;;;;;;;14.14;51.76;101254.44;5072483;28;19927;-70
2021/04/08 10:02:57;;;;;;;;;;;;;;;14.26;51.14;101252.00;5074646;28;19920;-70
2021/04/08 10:05:22;;;;;;;;;;;;;;;14.36;51.50;101251.88;5072586;28;19978;-70
2021/04/08 10:07:54;;;;;;;;;;;;;;;14.41;50.93;101250.97;5052372;28;19928;-70
2021/04/08 10:10:20;;;;;;;;;;;;;;;14.44;50.44;101247.59;5026371;28;19924;-70
2021/04/08 10:12:46;;;;;;;;;;;;;;;14.44;50.41;101244.78;5067616;28;19947;-70
2021/04/08 10:15:14;;;;;;;;;;;;;;;14.42;50.49;101233.91;5035055;28;19924;-70
2021/04/08 10:17:40;;;;;;;;;;;;;;;14.42;49.98;101233.91;5074657;28;20034;-70
2021/04/08 10:20:05;;;;;;;;;;;;;;;14.43;50.38;101243.97;5078040;28;20609;-70
2021/04/08 10:22:37;;;;;;;;;;;;;;;14.41;49.63;101243.44;5060432;28;19923;-70
2021/04/08 10:25:03;;;;;;;;;;;;;;;14.42;49.63;101245.06;5060395;28;19916;-70
2021/04/08 10:27:28;;;;;;;;;;;;;;;14.42;49.00;101230.28;5036530;28;20377;-70
2021/04/08 10:29:54;;;;;;;;;;;;;;;14.43;49.09;101232.78;5059355;28;19978;-70
2021/04/08 10:32:32;;;;;;;;;;;;;;;14.46;49.73;101231.34;5060030;28;20262;-70
2021/04/08 10:34:58;;;;;;;;;;;;;;;14.42;52.97;101231.09;5077794;28;19995;-70
2021/04/08 10:37:23;;;;;;;;;;;;;;;14.35;53.12;101227.88;5077292;28;19952;-70
2021/04/08 10:39:49;;;;;;;;;;;;;;;14.34;52.53;101226.19;5078433;28;19955;-77
2021/04/08 10:42:14;;;;;;;;;;;;;;;14.35;52.52;101232.59;5068356;28;20343;-77
2021/04/08 10:44:43;;;;;;;;;;;;;;;14.38;51.65;101218.88;5067290;28;19917;-77
2021/04/08 10:47:19;;;;;;;;;;;;;;;14.44;50.54;101216.84;5075175;28;19932;-77
2021/04/08 10:49:55;;;;;;;;;;;;;;;14.52;50.29;101217.00;5057556;28;19920;-77
2021/04/08 10:52:23;;;;;;;;;;;;;;;14.62;49.94;101217.97;5076183;28;19925;-77
2021/04/08 10:55:08;;;;;;;;;;;;;;;14.68;49.98;101209.22;5076878;28;19923;-77
2021/04/08 10:57:34;;;;;;;;;;;;;;;14.75;49.80;101204.06;5078433;28;19912;-77
2021/04/08 10:59:59;;;;;;;;;;;;;;;14.83;49.62;101207.28;5054437;28;20292;-77
2021/04/08 11:02:35;;;;;;;;;;;;;;;14.92;49.82;101208.25;5057495;28;19995;-77
2021/04/08 11:05:05;;;;;;;;;;;;;;;14.98;49.09;101201.41;5076870;28;20292;-77
2021/04/08 11:07:37;;;;;;;;;;;;;;;15.03;49.59;101197.72;5074043;28;20417;-77
2021/04/08 11:10:10;;;;;;;;;;;;;;;15.04;49.49;101197.38;5076741;28;19920;-77
2021/04/08 11:12:35;;;;;;;;;;;;;;;15.07;48.72;101193.16;5076983;28;19924;-77
2021/04/08 11:15:01;;;;;;;;;;;;;;;15.11;48.86;101194.22;5075094;28;19916;-78
2021/04/08 11:17:27;;;;;;;;;;;;;;;15.15;49.02;101190.47;5075367;28;19912;-78
2021/04/08 11:19:53;;;;;;;;;;;;;;;15.28;48.74;101196.41;5066571;28;20541;-77
2021/04/08 11:22:19;;;;;;;;;;;;;;;15.40;49.04;101194.75;5076083;28;19917;-77
2021/04/08 11:24:45;;;;;;;;;;;;;;;15.57;48.85;101184.91;5074598;28;20303;-77
2021/04/08 11:27:10;;;;;;;;;;;;;;;15.74;48.59;101178.69;5077017;28;19916;-77
2021/04/08 11:29:36;;;;;;;;;;;;;;;15.90;48.92;101182.84;5075153;28;19955;-77
2021/04/08 11:32:05;;;;;;;;;;;;;;;16.05;48.97;101184.47;5068815;28;19925;-77
2021/04/08 11:34:40;;;;;;;;;;;;;;;16.15;48.14;101173.03;5070744;28;19919;-77
2021/04/08 11:37:05;;;;;;;;;;;;;;;16.22;48.01;101173.44;5075902;28;19920;-77
2021/04/08 11:39:33;;;;;;;;;;;;;;;16.27;47.80;101170.50;5076953;28;20395;-77
2021/04/08 11:42:12;;;;;;;;;;;;;;;16.30;46.94;101153.06;5079896;28;20423;-77
2021/04/08 11:44:37;;;;;;;;;;;;;;;16.33;44.81;101156.38;5077168;28;19912;-77
2021/04/08 11:47:19;;;;;;;;;;;;;;;16.35;45.71;101159.69;5051042;28;19920;-77
2021/04/08 11:49:45;;;;;;;;;;;;;;;16.36;46.51;101155.75;5055879;28;19921;-77
2021/04/08 11:52:10;;;;;;;;;;;;;;;16.37;47.02;101160.19;5051528;28;19920;-77
2021/04/08 11:54:36;;;;;;;;;;;;;;;16.42;48.06;101151.66;5052368;28;19921;-77
2021/04/08 11:57:05;;;;;;;;;;;;;;;16.47;47.82;101157.16;5038044;28;19920;-77
2021/04/08 11:59:33;;;;;;;;;;;;;;;16.58;47.37;101154.94;5052945;28;19914;-77
2021/04/08 12:01:58;;;;;;;;;;;;;;;16.67;46.33;101162.22;5051569;28;19917;-77
2021/04/08 12:04:25;;;;;;;;;;;;;;;16.78;47.00;101156.41;5050997;28;19921;-77
2021/04/08 12:06:51;;;;;;;;;;;;;;;16.87;47.00;101154.47;5043381;28;19952;-77
2021/04/08 12:09:17;;;;;;;;;;;;;;;16.93;47.29;101148.38;5054401;28;19920;-78
2021/04/08 12:12:00;;;;;;;;;;;;;;;16.99;46.00;101143.47;5054388;28;20396;-77
2021/04/08 12:14:25;;;;;;;;;;;;;;;17.03;45.85;101138.06;5053294;28;19924;-77
2021/04/08 12:17:04;;;;;;;;;;;;;;;17.07;46.62;101139.88;5042344;28;20000;-77
2021/04/08 12:19:30;;;;;;;;;;;;;;;17.08;46.25;101137.94;5067653;28;19916;-77
2021/04/08 12:22:02;;;;;;;;;;;;;;;17.09;45.29;101134.78;5070045;28;20408;-77
2021/04/08 12:24:28;;;;;;;;;;;;;;;17.07;44.89;101128.66;5055642;28;19913;-78
2021/04/08 12:26:53;;;;;;;;;;;;;;;17.12;46.32;101131.31;5035867;28;20456;-77
2021/04/08 12:29:20;;;;;;;;;;;;;;;17.19;46.80;101130.88;5037057;28;19925;-77
2021/04/08 12:31:46;;;;;;;;;;;;;;;17.25;46.26;101121.16;5054945;28;19967;-77
2021/04/08 12:34:12;;;;;;;;;;;;;;;17.32;45.68;101115.88;5038527;28;19916;-77
2021/04/08 12:36:37;;;;;;;;;;;;;;;17.32;44.85;101104.66;5072229;28;24264;-77
2021/04/08 12:39:02;;;;;;;;;;;;;;;17.33;44.35;101109.13;5055817;28;19920;-77
2021/04/08 12:41:28;;;;;;;;;;;;;;;17.33;44.74;101116.72;5068684;28;19917;-78